Time;durP1;ratioP1;P1;durP2;ratioP2;P2;SDS_P1;SDS_P2;PMS_P1;PMS_P2;Temp;Humidity;BMP_temperature;BMP_pressure;BME280_temperature;BME280_humidity;BME280_pressure;Samples;Min_cycle;Max_cycle;Signal;HPM_P1;HPM_P2
2022/04/23 00:01:44;;;;;;;3.35;3.05;;;;;;;18.83;52.14;100023.38;5051863;28;20053;-73
2022/04/23 00:04:13;;;;;;;4.28;2.75;;;;;;;18.83;52.26;100027.91;5053298;28;20086;-73
2022/04/23 00:06:40;;;;;;;3.55;2.58;;;;;;;18.83;52.25;100033.25;5053288;28;20049;-73
2022/04/23 00:09:07;;;;;;;3.60;3.00;;;;;;;18.83;52.20;100027.91;5052983;28;20049;-73
2022/04/23 00:11:35;;;;;;;3.55;2.88;;;;;;;18.83;52.07;100027.91;5053173;28;20048;-73
2022/04/23 00:14:04;;;;;;;3.80;2.83;;;;;;;18.82;52.09;100023.53;5053791;28;20048;-73
2022/04/23 00:16:32;;;;;;;3.30;2.70;;;;;;;18.82;52.22;100020.84;5053197;28;20049;-74
2022/04/23 00:19:00;;;;;;;3.92;2.80;;;;;;;18.82;52.09;100005.59;5053003;28;20045;-74
2022/04/23 00:21:28;;;;;;;3.17;2.88;;;;;;;18.81;52.38;100001.25;5052951;28;20041;-74
2022/04/23 00:23:55;;;;;;;4.05;2.50;;;;;;;18.82;52.04;100002.09;5052594;28;20041;-74
2022/04/23 00:26:23;;;;;;;3.50;2.85;;;;;;;18.82;52.12;100004.78;5051922;28;20052;-73
2022/04/23 00:28:51;;;;;;;3.60;2.50;;;;;;;18.80;52.11;100006.72;5053149;28;20404;-73
2022/04/23 00:31:19;;;;;;;3.45;2.60;;;;;;;18.81;52.07;100008.44;5052472;28;20045;-73
2022/04/23 00:33:46;;;;;;;4.25;2.92;;;;;;;18.80;52.16;100001.38;5053526;28;20052;-73
2022/04/23 00:36:14;;;;;;;4.15;2.55;;;;;;;18.80;52.11;99999.56;5052489;28;20053;-74
2022/04/23 00:38:42;;;;;;;5.95;2.92;;;;;;;18.81;52.26;99989.69;5052526;28;20489;-73
2022/04/23 00:41:45;;;;;;;3.38;2.40;;;;;;;18.80;52.05;99985.28;5051083;28;20120;-73
2022/04/23 00:44:01;;;;;;;4.18;3.00;;;;;;;18.79;52.16;99997.84;5053075;28;20052;-73
2022/04/23 00:46:29;;;;;;;3.30;2.55;;;;;;;18.78;52.11;99991.66;5052496;28;20401;-73
2022/04/23 00:48:58;;;;;;;3.22;2.90;;;;;;;18.78;52.12;99991.66;5051127;28;20040;-74
2022/04/23 00:51:30;;;;;;;3.60;2.42;;;;;;;18.79;52.09;99989.81;5052695;28;20045;-73
2022/04/23 00:53:59;;;;;;;3.45;2.78;;;;;;;18.78;52.05;99985.44;5052496;28;20506;-73
2022/04/23 00:56:26;;;;;;;7.10;2.70;;;;;;;18.78;52.21;99994.34;5054804;28;20045;-73
2022/04/23 00:58:53;;;;;;;2.97;2.33;;;;;;;18.78;52.08;99999.69;5056335;28;20049;-73
2022/04/23 01:01:23;;;;;;;2.92;2.28;;;;;;;18.79;52.02;100003.22;5056977;28;20048;-72
2022/04/23 01:03:52;;;;;;;2.92;2.30;;;;;;;18.79;52.17;100005.91;5056791;28;20138;-73
2022/04/23 01:06:20;;;;;;;3.42;2.15;;;;;;;18.78;52.12;100006.91;5056194;28;20389;-72
2022/04/23 01:08:47;;;;;;;2.97;2.22;;;;;;;18.76;52.10;100009.75;5056347;28;20056;-73
2022/04/23 01:11:15;;;;;;;3.17;2.55;;;;;;;18.77;52.11;100006.06;5056267;28;20041;-73
2022/04/23 01:13:45;;;;;;;3.45;2.67;;;;;;;18.76;52.05;100016.94;5054926;28;20045;-73
2022/04/23 01:16:13;;;;;;;3.08;2.67;;;;;;;18.76;52.06;100015.09;5056407;28;20048;-73
2022/04/23 01:18:42;;;;;;;4.15;2.20;;;;;;;18.76;52.15;100012.41;5056386;28;20048;-73
2022/04/23 01:21:10;;;;;;;3.33;2.60;;;;;;;18.76;52.04;100011.56;5055819;28;20044;-73
2022/04/23 01:23:42;;;;;;;2.90;2.38;;;;;;;18.77;52.03;100019.47;5056755;28;20048;-73
2022/04/23 01:26:10;;;;;;;5.30;2.22;;;;;;;18.77;51.97;100018.63;5055606;28;20040;-72
2022/04/23 01:28:39;;;;;;;4.28;2.20;;;;;;;18.76;52.17;100017.78;5055982;28;20049;-72
2022/04/23 01:31:07;;;;;;;2.97;2.22;;;;;;;18.76;52.12;100017.78;5056450;28;20041;-72
2022/04/23 01:33:35;;;;;;;2.78;2.33;;;;;;;18.76;52.04;100017.78;5055624;28;20055;-72
2022/04/23 01:36:03;;;;;;;2.92;2.28;;;;;;;18.76;51.93;100023.16;5055582;28;20076;-72
2022/04/23 01:38:31;;;;;;;3.38;2.22;;;;;;;18.76;51.91;100019.63;5055933;28;20040;-72
2022/04/23 01:40:58;;;;;;;2.70;2.10;;;;;;;18.75;51.85;100020.59;5055766;28;20048;-72
2022/04/23 01:43:26;;;;;;;3.90;2.53;;;;;;;18.75;51.91;100020.59;5055832;28;20045;-72
2022/04/23 01:45:53;;;;;;;3.15;2.33;;;;;;;18.75;51.95;100025.94;5055938;28;20052;-72
2022/04/23 01:48:20;;;;;;;2.53;2.00;;;;;;;18.75;52.04;100029.47;5055938;28;20060;-71
2022/04/23 01:50:48;;;;;;;3.28;2.50;;;;;;;18.75;51.85;100034.00;5055403;28;20041;-72
2022/04/23 01:53:15;;;;;;;2.90;2.00;;;;;;;18.74;52.01;100033.16;5055771;28;20060;-72
2022/04/23 01:55:43;;;;;;;4.47;2.10;;;;;;;18.74;51.74;100032.31;5055761;28;20047;-72
2022/04/23 01:58:10;;;;;;;3.13;2.22;;;;;;;18.74;51.82;100035.84;5055102;28;20048;-72
2022/04/23 02:00:37;;;;;;;2.55;2.05;;;;;;;18.74;51.81;100041.19;5055767;28;20362;-72
2022/04/23 02:03:06;;;;;;;2.78;2.10;;;;;;;18.73;51.88;100036.84;5055520;28;20045;-72
2022/04/23 02:05:33;;;;;;;4.40;2.40;;;;;;;18.72;51.86;100028.94;5055619;28;20048;-72
2022/04/23 02:08:01;;;;;;;5.28;2.40;;;;;;;18.73;51.70;100030.63;5054349;28;20064;-72
2022/04/23 02:10:28;;;;;;;3.13;2.45;;;;;;;18.73;51.88;100030.63;5055061;28;20045;-72
2022/04/23 02:12:55;;;;;;;5.50;2.15;;;;;;;18.72;51.79;100037.84;5055565;28;20056;-73
2022/04/23 02:15:23;;;;;;;4.80;2.22;;;;;;;18.71;51.82;100028.09;5054977;28;20044;-72
2022/04/23 02:17:52;;;;;;;2.58;2.10;;;;;;;18.73;51.62;100027.94;5055076;28;20045;-72
2022/04/23 02:20:20;;;;;;;3.00;2.10;;;;;;;18.71;51.75;100025.41;5055126;28;20041;-72
2022/04/23 02:22:47;;;;;;;9.27;2.17;;;;;;;18.70;51.86;100023.72;5034686;28;20056;-72
2022/04/23 02:25:16;;;;;;;3.08;1.98;;;;;;;18.71;51.74;100019.19;5035330;28;20045;-72
2022/04/23 02:27:46;;;;;;;3.25;2.25;;;;;;;18.72;51.61;100023.59;5051708;28;20052;-72
2022/04/23 02:30:18;;;;;;;2.90;2.10;;;;;;;18.71;51.61;100009.31;5054857;28;20401;-72
2022/04/23 02:32:47;;;;;;;2.97;1.90;;;;;;;18.71;51.67;100006.63;5054577;28;20048;-72
2022/04/23 02:35:20;;;;;;;2.70;1.80;;;;;;;18.70;51.56;100002.28;5054951;28;20052;-72
2022/04/23 02:37:48;;;;;;;3.65;1.85;;;;;;;18.70;51.48;99991.53;5052909;28;20412;-72
2022/04/23 02:40:16;;;;;;;2.60;1.80;;;;;;;18.71;51.78;99997.75;5054574;28;20053;-72
2022/04/23 02:42:44;;;;;;;3.70;2.05;;;;;;;18.71;51.66;100005.78;5055172;28;20384;-72
2022/04/23 02:45:14;;;;;;;4.20;2.10;;;;;;;18.70;51.55;100004.13;5054769;28;20052;-73
2022/04/23 02:47:54;;;;;;;2.85;2.20;;;;;;;18.69;51.54;100013.97;5055201;28;20051;-72
2022/04/23 02:50:27;;;;;;;3.63;1.85;;;;;;;18.70;51.70;100020.19;5055228;28;20045;-72
2022/04/23 02:52:57;;;;;;;2.30;1.77;;;;;;;18.70;51.92;100014.84;5053258;28;20053;-73
2022/04/23 02:55:31;;;;;;;4.22;1.88;;;;;;;18.69;51.74;100019.31;5054333;28;20045;-73
2022/04/23 02:58:04;;;;;;;2.63;1.75;;;;;;;18.69;51.45;100018.47;5053444;28;20396;-72
2022/04/23 03:00:31;;;;;;;2.63;1.75;;;;;;;18.69;51.57;100027.38;5054235;28;20076;-73
2022/04/23 03:02:59;;;;;;;3.40;2.00;;;;;;;18.68;51.66;100031.06;5054044;28;20040;-71
2022/04/23 03:05:27;;;;;;;3.63;2.33;;;;;;;18.68;51.50;100033.72;5054754;28;20123;-72
2022/04/23 03:07:54;;;;;;;2.90;2.20;;;;;;;18.68;51.75;100033.72;5053921;28;20040;-72
2022/04/23 03:10:27;;;;;;;2.60;1.77;;;;;;;18.69;51.67;100031.88;5054447;28;20049;-72
2022/04/23 03:12:56;;;;;;;3.10;1.83;;;;;;;18.68;51.67;100036.41;5054107;28;20041;-71
2022/04/23 03:15:28;;;;;;;3.92;2.03;;;;;;;18.67;51.75;100040.06;5054084;28;20041;-72
2022/04/23 03:18:09;;;;;;;2.95;2.17;;;;;;;18.68;51.69;100031.06;5054415;28;20048;-72
2022/04/23 03:20:37;;;;;;;5.40;2.00;;;;;;;18.68;51.47;100036.41;5053794;28;20048;-72
2022/04/23 03:23:05;;;;;;;2.00;1.50;;;;;;;18.68;51.58;100028.38;5053734;28;20064;-72
2022/04/23 03:25:33;;;;;;;2.65;1.92;;;;;;;18.68;51.60;100031.06;5053152;28;20049;-72
2022/04/23 03:28:01;;;;;;;2.50;1.50;;;;;;;18.68;51.71;100030.22;5053050;28;20044;-72
2022/04/23 03:30:29;;;;;;;2.17;1.52;;;;;;;18.68;51.47;100024.84;5053422;28;20054;-71
2022/04/23 03:32:58;;;;;;;2.85;2.00;;;;;;;18.67;51.58;100021.28;5053839;28;20507;-72
2022/04/23 03:35:26;;;;;;;2.67;1.70;;;;;;;18.67;51.62;100018.63;5053331;28;20403;-72
2022/04/23 03:37:55;;;;;;;2.55;1.75;;;;;;;18.67;51.58;100026.66;5053356;28;20043;-72
2022/04/23 03:40:24;;;;;;;2.40;1.55;;;;;;;18.67;51.54;100025.81;5052514;28;20051;-72
2022/04/23 03:42:51;;;;;;;3.22;1.75;;;;;;;18.66;51.69;100027.66;5053379;28;20045;-72
2022/04/23 03:45:19;;;;;;;2.75;2.00;;;;;;;18.66;51.54;100024.97;5053249;28;20049;-72
2022/04/23 03:47:47;;;;;;;3.00;1.88;;;;;;;18.66;51.50;100029.50;5053927;28;20052;-72
2022/04/23 03:50:16;;;;;;;2.30;1.60;;;;;;;18.67;51.68;100033.84;5053331;28;20404;-72
2022/04/23 03:52:44;;;;;;;9.68;2.03;;;;;;;18.66;51.48;100024.97;5053814;28;20052;-72
2022/04/23 03:55:13;;;;;;;3.40;1.85;;;;;;;18.66;51.55;100030.34;5053713;28;20049;-72
2022/04/23 03:57:49;;;;;;;2.38;1.80;;;;;;;18.66;51.50;100024.13;5053495;28;20045;-72
2022/04/23 04:00:21;;;;;;;4.32;1.73;;;;;;;18.66;51.78;100024.97;5053650;28;20053;-72
2022/04/23 04:02:50;;;;;;;2.83;1.77;;;;;;;18.66;51.50;100016.94;5053792;28;20041;-73
2022/04/23 04:05:18;;;;;;;3.25;1.98;;;;;;;18.66;51.45;100030.34;5053212;28;20418;-73
2022/04/23 04:07:47;;;;;;;3.75;2.10;;;;;;;18.66;51.47;100034.84;5053708;28;20072;-72
2022/04/23 04:10:20;;;;;;;3.17;1.95;;;;;;;18.66;51.50;100054.47;5053371;28;20060;-72
2022/04/23 04:12:48;;;;;;;2.83;1.90;;;;;;;18.66;51.52;100070.56;5053317;28;20457;-72
2022/04/23 04:15:17;;;;;;;4.70;1.90;;;;;;;18.65;51.53;100074.22;5053427;28;20075;-72
2022/04/23 04:17:48;;;;;;;3.45;1.55;;;;;;;18.65;51.53;100076.91;5053330;28;20480;-72
2022/04/23 04:20:16;;;;;;;4.70;1.55;;;;;;;18.65;51.41;100079.59;5053060;28;20053;-72
2022/04/23 04:22:44;;;;;;;3.38;1.90;;;;;;;18.65;51.54;100082.28;5052721;28;20041;-72
2022/04/23 04:25:13;;;;;;;2.80;1.70;;;;;;;18.65;51.59;100076.91;5052942;28;20044;-72
2022/04/23 04:27:41;;;;;;;3.92;1.65;;;;;;;18.66;51.54;100075.06;5053194;28;20052;-72
2022/04/23 04:30:11;;;;;;;2.60;1.70;;;;;;;18.64;51.60;100077.06;5051668;28;20053;-72
2022/04/23 04:32:41;;;;;;;3.20;1.80;;;;;;;18.64;51.57;100083.28;5052970;28;20052;-72
2022/04/23 04:35:10;;;;;;;2.67;1.92;;;;;;;18.64;51.53;100093.16;5052994;28;20059;-72
2022/04/23 04:37:37;;;;;;;2.28;1.70;;;;;;;18.63;51.49;100092.28;5053003;28;20049;-72
2022/04/23 04:40:05;;;;;;;2.88;1.70;;;;;;;18.63;51.50;100081.56;5052618;28;20037;-72
2022/04/23 04:42:33;;;;;;;2.53;1.60;;;;;;;18.64;51.62;100077.06;5052294;28;20049;-72
2022/04/23 04:45:02;;;;;;;3.28;1.80;;;;;;;18.64;51.53;100077.06;5052837;28;20044;-72
2022/04/23 04:47:30;;;;;;;3.00;1.73;;;;;;;18.63;51.71;100078.88;5052957;28;20051;-72
2022/04/23 04:49:57;;;;;;;2.70;1.60;;;;;;;18.63;51.55;100081.56;5052677;28;20075;-72
2022/04/23 04:52:24;;;;;;;2.65;1.83;;;;;;;18.63;51.49;100081.56;5052523;28;20394;-72
2022/04/23 04:54:56;;;;;;;2.30;1.73;;;;;;;18.62;51.57;100085.22;5050955;28;20504;-72
2022/04/23 04:57:24;;;;;;;2.35;1.65;;;;;;;18.61;51.57;100083.56;5052359;28;20037;-73
2022/04/23 04:59:51;;;;;;;2.80;1.83;;;;;;;18.63;51.67;100086.91;5052686;28;20060;-73
2022/04/23 05:02:19;;;;;;;3.45;1.45;;;;;;;18.62;51.42;100093.28;5052726;28;20041;-72
2022/04/23 05:04:46;;;;;;;2.88;1.70;;;;;;;18.63;51.56;100092.28;5052242;28;20057;-72
2022/04/23 05:07:14;;;;;;;3.25;1.85;;;;;;;18.62;51.68;100090.59;5052543;28;20063;-71
2022/04/23 05:09:42;;;;;;;2.92;1.95;;;;;;;18.62;51.55;100077.19;5052861;28;20037;-72
2022/04/23 05:12:09;;;;;;;2.72;1.98;;;;;;;18.61;51.57;100086.22;5051937;28;20056;-72
2022/04/23 05:14:37;;;;;;;2.05;1.42;;;;;;;18.62;51.83;100081.72;5052221;28;20509;-72
2022/04/23 05:17:10;;;;;;;2.65;1.73;;;;;;;18.62;51.62;100092.44;5052577;28;20052;-72
2022/04/23 05:19:37;;;;;;;3.15;2.08;;;;;;;18.62;51.49;100087.06;5051169;28;20057;-72
2022/04/23 05:22:04;;;;;;;2.17;1.52;;;;;;;18.61;51.58;100080.88;5051953;28;20049;-72
2022/04/23 05:24:32;;;;;;;2.85;1.75;;;;;;;18.61;51.56;100080.88;5052681;28;20587;-72
2022/04/23 05:26:59;;;;;;;2.88;1.85;;;;;;;18.61;51.72;100082.72;5052494;28;20053;-72
2022/04/23 05:29:27;;;;;;;2.60;1.95;;;;;;;18.61;51.55;100086.22;5051743;28;20048;-72
2022/04/23 05:31:54;;;;;;;3.65;1.80;;;;;;;18.61;51.63;100085.38;5051902;28;20045;-72
2022/04/23 05:34:24;;;;;;;2.47;1.67;;;;;;;18.60;51.54;100079.19;5052115;28;20048;-72
2022/04/23 05:36:51;;;;;;;2.67;1.63;;;;;;;18.61;51.57;100080.88;5052224;28;20044;-72
2022/04/23 05:39:19;;;;;;;2.33;1.60;;;;;;;18.60;51.57;100071.16;5052335;28;20045;-72
2022/04/23 05:41:47;;;;;;;3.58;1.48;;;;;;;18.61;51.60;100067.47;5050685;28;20052;-72
2022/04/23 05:44:15;;;;;;;3.58;1.73;;;;;;;18.61;51.56;100077.34;5054160;28;20049;-72
2022/04/23 05:46:42;;;;;;;3.05;1.95;;;;;;;18.61;51.46;100088.06;5056060;28;20048;-72
2022/04/23 05:49:09;;;;;;;2.63;1.60;;;;;;;18.60;51.48;100092.59;5055442;28;20048;-73
2022/04/23 05:51:37;;;;;;;2.38;1.50;;;;;;;18.60;51.38;100107.84;5055942;28;20080;-72
2022/04/23 05:54:04;;;;;;;2.90;1.80;;;;;;;18.60;51.45;100107.84;5056304;28;20052;-72
2022/04/23 05:56:32;;;;;;;2.08;1.48;;;;;;;18.59;51.46;100117.69;5055365;28;20049;-72
2022/04/23 05:58:59;;;;;;;2.70;1.70;;;;;;;18.60;51.53;100114.03;5055315;28;20392;-72
2022/04/23 06:01:26;;;;;;;2.00;1.20;;;;;;;18.59;51.60;100117.69;5055423;28;20045;-73
2022/04/23 06:03:54;;;;;;;2.45;1.60;;;;;;;18.60;51.56;100122.09;5055386;28;20045;-73
2022/04/23 06:06:22;;;;;;;2.42;1.58;;;;;;;18.60;51.59;100115.88;5055206;28;20045;-72
2022/04/23 06:08:50;;;;;;;2.80;1.63;;;;;;;18.60;51.72;100111.34;5055652;28;20053;-72
2022/04/23 06:11:17;;;;;;;2.45;1.60;;;;;;;18.60;51.65;100115.88;5055520;28;20045;-72
2022/04/23 06:13:45;;;;;;;2.45;1.52;;;;;;;18.59;51.55;100112.31;5054171;28;20041;-72
2022/04/23 06:16:12;;;;;;;2.15;1.65;;;;;;;18.59;51.61;100128.41;5055225;28;20056;-72
2022/04/23 06:18:39;;;;;;;2.63;1.50;;;;;;;18.59;51.66;100131.09;5055417;28;20052;-72
2022/04/23 06:21:07;;;;;;;2.67;1.50;;;;;;;18.60;51.71;100129.28;5054832;28;20045;-72
2022/04/23 06:23:34;;;;;;;2.20;1.55;;;;;;;18.59;51.49;100131.09;5053606;28;20057;-73
2022/04/23 06:26:01;;;;;;;2.30;1.63;;;;;;;18.59;51.63;100128.41;5055202;28;20056;-73
2022/04/23 06:28:29;;;;;;;3.95;2.70;;;;;;;18.59;51.65;100139.13;5054772;28;20067;-72
2022/04/23 06:30:56;;;;;;;2.50;1.65;;;;;;;18.60;51.57;100129.28;5054055;28;20044;-72
2022/04/23 06:33:23;;;;;;;3.58;1.70;;;;;;;18.60;51.72;100138.16;5054525;28;20392;-72
2022/04/23 06:35:51;;;;;;;1.92;1.30;;;;;;;18.59;51.61;100140.97;5055588;28;20045;-72
2022/04/23 06:38:18;;;;;;;3.30;1.50;;;;;;;18.59;51.69;100140.97;5053724;28;20053;-72
2022/04/23 06:40:45;;;;;;;3.78;1.77;;;;;;;18.59;51.78;100138.28;5055001;28;20041;-72
2022/04/23 06:43:13;;;;;;;3.15;1.63;;;;;;;18.59;51.78;100141.81;5054947;28;20396;-72
2022/04/23 06:45:44;;;;;;;2.28;1.45;;;;;;;18.59;51.81;100139.13;5054583;28;20045;-72
2022/04/23 06:48:12;;;;;;;3.38;1.67;;;;;;;18.57;51.63;100138.44;5054521;28;20492;-72
2022/04/23 06:50:39;;;;;;;3.15;2.00;;;;;;;18.45;52.08;100147.63;5054838;28;20050;-72
2022/04/23 06:53:06;;;;;;;5.25;2.33;;;;;;;18.32;52.28;100141.72;5053820;28;20049;-72
2022/04/23 06:55:34;;;;;;;2.97;2.15;;;;;;;18.26;52.54;100137.75;5052569;28;20049;-72
2022/04/23 06:58:01;;;;;;;4.07;2.47;;;;;;;18.22;52.76;100136.34;5054945;28;20508;-71
2022/04/23 07:00:29;;;;;;;6.45;2.65;;;;;;;18.15;53.20;100137.91;5054250;28;20052;-72
2022/04/23 07:02:59;;;;;;;3.95;2.55;;;;;;;18.11;53.33;100142.72;5054069;28;20049;-72
2022/04/23 07:05:27;;;;;;;4.88;1.92;;;;;;;18.11;53.63;100150.75;5054714;28;20044;-72
2022/04/23 07:08:02;;;;;;;3.40;2.00;;;;;;;18.12;53.99;100152.44;5053834;28;20052;-75
2022/04/23 07:10:31;;;;;;;3.42;2.10;;;;;;;18.12;53.93;100147.09;5054528;28;20056;-73
2022/04/23 07:12:59;;;;;;;3.35;2.13;;;;;;;18.10;53.82;100141.00;5053630;28;20068;-72
2022/04/23 07:15:28;;;;;;;3.17;2.05;;;;;;;18.02;54.11;100152.41;5054417;28;20460;-72
2022/04/23 07:17:56;;;;;;;2.53;1.90;;;;;;;18.01;54.59;100139.16;5053948;28;20405;-72
2022/04/23 07:20:24;;;;;;;3.92;2.20;;;;;;;18.01;54.75;100140.00;5054117;28;20072;-72
2022/04/23 07:25:38;;;;;;;3.15;1.98;;;;;;;18.06;55.44;100147.63;5054111;28;20063;-72
2022/04/23 07:28:05;;;;;;;2.83;2.15;;;;;;;18.12;55.16;100157.78;5054225;28;20041;-75
2022/04/23 07:30:35;;;;;;;2.70;2.10;;;;;;;18.16;55.04;100153.84;5053958;28;20053;-75
2022/04/23 07:33:04;;;;;;;2.83;1.90;;;;;;;18.21;55.11;100151.59;5052254;28;20489;-72
2022/04/23 07:38:23;;;;;;;3.30;2.22;;;;;;;18.29;55.21;100154.41;5052468;28;20052;-71
2022/04/23 07:40:51;;;;;;;4.30;2.50;;;;;;;18.31;55.29;100154.28;5053479;28;20048;-72
2022/04/23 07:43:19;;;;;;;2.58;1.95;;;;;;;18.33;55.31;100160.34;5053401;28;20049;-74
2022/04/23 07:45:46;;;;;;;5.63;1.90;;;;;;;18.34;55.06;100155.81;5053955;28;20051;-72
2022/04/23 07:48:14;;;;;;;3.17;2.10;;;;;;;18.38;54.95;100162.59;5054077;28;20045;-72
2022/04/23 07:50:42;;;;;;;2.92;2.00;;;;;;;18.40;54.71;100163.31;5053355;28;20492;-74
2022/04/23 07:53:11;;;;;;;3.05;1.80;;;;;;;18.43;54.55;100160.31;5053728;28;20048;-72
2022/04/23 07:55:40;;;;;;;4.25;1.90;;;;;;;18.46;54.22;100165.41;5053807;28;20056;-72
2022/04/23 07:58:11;;;;;;;3.38;2.03;;;;;;;18.49;54.15;100167.81;5053903;28;20041;-72
2022/04/23 08:00:40;;;;;;;2.55;1.63;;;;;;;18.52;54.32;100163.00;5052315;28;20080;-72
2022/04/23 08:03:10;;;;;;;3.17;1.90;;;;;;;18.54;54.18;100165.53;5054517;28;20158;-72
2022/04/23 08:05:38;;;;;;;3.80;2.10;;;;;;;18.57;55.29;100169.78;5052794;28;20045;-72
2022/04/23 08:08:06;;;;;;;4.60;1.63;;;;;;;18.58;54.77;100174.13;5053266;28;20052;-72
2022/04/23 08:10:34;;;;;;;3.13;1.88;;;;;;;18.60;55.07;100166.81;5051957;28;20040;-76
2022/04/23 08:13:01;;;;;;;10.00;2.30;;;;;;;18.61;54.94;100163.97;5053709;28;20045;-72
2022/04/23 08:15:28;;;;;;;3.42;1.60;;;;;;;18.62;55.08;100156.78;5050440;28;20041;-74
2022/04/23 08:17:56;;;;;;;3.50;1.95;;;;;;;18.64;55.20;100155.66;5053280;28;20400;-72
2022/04/23 08:20:23;;;;;;;3.88;2.03;;;;;;;18.64;55.48;100169.06;5053250;28;20045;-72
2022/04/23 08:22:51;;;;;;;9.48;2.05;;;;;;;18.66;55.04;100169.75;5052793;28;20171;-73
2022/04/23 08:25:19;;;;;;;3.58;1.95;;;;;;;18.68;54.75;100170.47;5051839;28;20045;-74
2022/04/23 08:27:51;;;;;;;10.73;2.33;;;;;;;18.69;54.92;100172.16;5053087;28;20045;-73
2022/04/23 08:30:34;;;;;;;4.22;2.03;;;;;;;18.71;54.67;100178.22;5051875;28;20057;-73
2022/04/23 08:33:03;;;;;;;4.88;2.13;;;;;;;18.73;54.84;100170.91;5050784;28;20033;-73
2022/04/23 08:35:32;;;;;;;5.80;2.17;;;;;;;18.74;54.80;100164.53;5052440;28;20041;-73
2022/04/23 08:38:00;;;;;;;4.97;1.77;;;;;;;18.74;54.67;100172.59;5052592;28;20058;-73
2022/04/23 08:40:29;;;;;;;3.45;1.85;;;;;;;18.75;54.28;100170.75;5052575;28;20481;-73
2022/04/23 08:42:57;;;;;;;5.45;1.75;;;;;;;18.75;54.82;100174.28;5035615;28;20052;-74
2022/04/23 08:45:25;;;;;;;5.93;1.80;;;;;;;18.77;54.60;100174.16;5052753;28;20045;-73
2022/04/23 08:47:52;;;;;;;6.50;2.05;;;;;;;18.78;54.60;100175.84;5052406;28;20045;-73
2022/04/23 08:50:21;;;;;;;3.05;1.73;;;;;;;18.79;55.08;100180.19;5051370;28;20048;-73
2022/04/23 08:52:55;;;;;;;2.75;1.70;;;;;;;18.81;55.02;100174.72;5051360;28;20064;-73
2022/04/23 08:55:26;;;;;;;5.95;2.10;;;;;;;18.80;54.68;100176.56;5052578;28;20037;-73
2022/04/23 08:57:54;;;;;;;3.05;2.03;;;;;;;18.81;54.63;100180.91;5052424;28;20040;-73
2022/04/23 09:00:22;;;;;;;4.90;2.00;;;;;;;18.81;55.11;100177.38;5051693;28;20041;-73
2022/04/23 09:02:50;;;;;;;4.68;2.40;;;;;;;18.81;54.84;100174.72;5038871;28;20041;-73
2022/04/23 09:05:18;;;;;;;2.33;1.70;;;;;;;18.82;55.26;100179.06;5032604;28;20049;-73
2022/04/23 09:07:54;;;;;;;6.22;2.20;;;;;;;18.83;56.43;100175.41;5032831;28;20042;-73
2022/04/23 09:10:45;;;;;;;6.47;2.10;;;;;;;18.85;56.01;100170.75;5032346;28;20393;-73
2022/04/23 09:13:28;;;;;;;3.15;2.00;;;;;;;18.85;56.01;100168.06;5036703;28;20046;-73
2022/04/23 09:24:48;;;;;;;4.95;2.20;;;;;;;18.84;56.93;100169.03;5057059;28;20037;-73
2022/04/23 09:27:16;;;;;;;3.45;1.95;;;;;;;18.85;56.17;100181.47;5045942;28;20060;-73
2022/04/23 09:30:07;;;;;;;3.53;1.90;;;;;;;18.85;56.23;100185.00;5039500;28;20431;-73
2022/04/23 09:32:35;;;;;;;3.20;1.92;;;;;;;18.85;56.84;100185.00;5046753;28;20052;-73
2022/04/23 09:35:10;;;;;;;3.45;1.88;;;;;;;18.87;56.83;100179.47;5054981;28;20051;-73
2022/04/23 09:40:27;;;;;;;3.03;2.15;;;;;;;18.87;56.71;100187.53;5056268;28;20045;-74
2022/04/23 09:43:02;;;;;;;3.22;2.03;;;;;;;18.88;57.36;100194.56;5056108;28;20048;-72
2022/04/23 09:45:30;;;;;;;3.13;2.22;;;;;;;18.87;57.52;100193.72;5056137;28;20056;-73
2022/04/23 09:48:04;;;;;;;3.72;2.15;;;;;;;18.86;57.42;100189.38;5055149;28;20060;-74
2022/04/23 09:50:39;;;;;;;3.47;2.35;;;;;;;18.87;57.60;100192.88;5055653;28;20051;-73
2022/04/23 09:53:17;;;;;;;2.97;2.08;;;;;;;18.88;57.54;100189.22;5055699;28;20462;-73
2022/04/23 09:55:45;;;;;;;3.53;2.78;;;;;;;18.89;57.39;100193.59;5055445;28;20041;-74
2022/04/23 09:58:14;;;;;;;6.80;3.28;;;;;;;18.89;57.55;100198.97;5056207;28;20392;-73
2022/04/23 10:00:44;;;;;;;4.20;2.58;;;;;;;18.89;57.05;100193.59;5055519;28;20048;-73
2022/04/23 10:03:12;;;;;;;3.08;2.20;;;;;;;18.89;57.13;100199.81;5055493;28;20045;-73
2022/04/23 10:05:44;;;;;;;4.28;1.75;;;;;;;18.92;57.27;100198.66;5055769;28;20054;-72
2022/04/23 10:08:16;;;;;;;3.08;2.20;;;;;;;18.91;57.33;100197.81;5055385;28;20044;-72
2022/04/23 10:11:00;;;;;;;3.47;2.40;;;;;;;18.92;57.25;100199.53;5055210;28;20040;-73
2022/04/23 10:13:30;;;;;;;5.43;2.60;;;;;;;18.94;56.99;100199.38;5055524;28;20049;-72
2022/04/23 10:15:58;;;;;;;4.88;2.92;;;;;;;18.94;56.90;100210.09;5055630;28;20085;-72
2022/04/23 10:18:26;;;;;;;5.35;3.60;;;;;;;18.95;56.81;100195.69;5055167;28;20052;-71
2022/04/23 10:21:01;;;;;;;7.95;5.93;;;;;;;18.95;56.96;100193.00;5055076;28;20049;-71
2022/04/23 10:23:59;;;;;;;7.80;5.53;;;;;;;18.95;56.76;100185.81;5055245;28;20064;-73
2022/04/23 10:26:48;;;;;;;8.68;5.95;;;;;;;18.95;56.48;100183.13;5053822;28;20497;-73
2022/04/23 10:29:21;;;;;;;8.85;5.88;;;;;;;18.96;56.31;100184.84;5054128;28;20071;-72
2022/04/23 10:32:15;;;;;;;8.25;6.72;;;;;;;18.97;56.42;100174.94;5054909;28;20053;-73
2022/04/23 10:34:43;;;;;;;6.97;6.03;;;;;;;18.97;56.08;100169.59;5054521;28;20052;-73
2022/04/23 10:37:24;;;;;;;10.90;6.85;;;;;;;18.97;55.96;100166.91;5054304;28;20229;-72
2022/04/23 10:39:51;;;;;;;9.93;7.35;;;;;;;18.97;56.22;100167.75;5054981;28;20439;-74
2022/04/23 10:42:21;;;;;;;10.13;7.68;;;;;;;18.99;56.12;100170.28;5019592;28;20046;-73
2022/04/23 10:44:50;;;;;;;9.13;7.00;;;;;;;19.00;56.17;100166.63;5014808;28;20493;-74
2022/04/23 10:47:28;;;;;;;7.57;6.45;;;;;;;19.01;55.85;100170.97;5014481;28;20050;-73
2022/04/23 10:50:31;;;;;;;8.05;6.90;;;;;;;19.03;55.66;100174.34;5014841;28;20050;-73
2022/04/23 10:53:02;;;;;;;11.93;7.90;;;;;;;19.01;55.92;100171.81;5032729;28;20065;-73
2022/04/23 10:55:31;;;;;;;7.95;7.03;;;;;;;19.02;56.07;100170.81;4999485;28;20046;-73
2022/04/23 10:58:20;;;;;;;6.70;6.00;;;;;;;19.04;55.88;100165.34;5032624;28;20053;-73
2022/04/23 11:00:48;;;;;;;8.35;7.47;;;;;;;19.04;55.82;100168.03;5016069;28;20057;-73
2022/04/23 11:03:15;;;;;;;11.02;8.38;;;;;;;19.05;56.10;100167.03;5032682;28;20062;-73
2022/04/23 11:14:44;;;;;;;9.88;8.00;;;;;;;19.05;55.73;100148.25;5032023;28;20049;-73
2022/04/23 11:17:20;;;;;;;8.82;7.93;;;;;;;19.06;55.81;100157.13;5031922;28;20098;-73
2022/04/23 11:19:53;;;;;;;10.73;8.80;;;;;;;19.06;55.82;100141.88;5032784;28;20061;-73
2022/04/23 11:22:22;;;;;;;11.88;9.25;;;;;;;19.05;55.59;100139.34;5032086;28;20064;-74
2022/04/23 11:24:51;;;;;;;10.30;8.80;;;;;;;19.07;55.80;100130.16;5031754;28;20049;-74
2022/04/23 11:27:33;;;;;;;9.98;8.55;;;;;;;19.07;55.99;100132.81;5031804;28;20056;-73
2022/04/23 11:30:00;;;;;;;9.95;7.13;;;;;;;19.07;55.78;100138.19;4994703;28;20042;-73
2022/04/23 11:32:32;;;;;;;12.98;7.88;;;;;;;19.07;55.40;100135.50;4994611;28;20046;-73
2022/04/23 11:35:01;;;;;;;9.82;7.63;;;;;;;19.08;55.75;100131.84;4996484;28;20058;-73
2022/04/23 11:37:32;;;;;;;8.80;7.90;;;;;;;19.08;55.78;100139.03;5013532;28;20481;-73
2022/04/23 11:40:10;;;;;;;10.15;7.53;;;;;;;19.09;55.76;100138.06;5012502;28;20405;-73
2022/04/23 11:42:45;;;;;;;8.82;7.90;;;;;;;19.10;55.47;100139.75;5013895;28;20074;-74
2022/04/23 11:45:16;;;;;;;8.07;7.28;;;;;;;19.09;55.49;100132.69;5013743;28;20409;-73
2022/04/23 11:47:43;;;;;;;7.82;6.85;;;;;;;19.09;55.42;100130.84;5013751;28;20481;-73
2022/04/23 11:50:12;;;;;;;7.53;5.85;;;;;;;19.10;54.35;100124.50;5013714;28;20057;-74
2022/04/23 11:52:45;;;;;;;6.78;5.00;;;;;;;19.10;53.94;100124.50;5013716;28;20486;-74
2022/04/23 11:55:26;;;;;;;7.25;3.88;;;;;;;19.12;52.43;100122.53;5014073;28;20478;-73
2022/04/23 11:58:02;;;;;;;4.45;3.75;;;;;;;19.11;52.89;100123.50;5014289;28;20512;-73
2022/04/23 12:00:33;;;;;;;5.13;3.83;;;;;;;19.12;52.63;100119.84;5014431;28;20049;-74
2022/04/23 12:03:01;;;;;;;5.13;3.83;;;;;;;19.14;52.56;100109.78;5014137;28;20076;-73